Aeroporto :
LOGIN :

Iscrizione | Disclaimer

   EN    FR    IT 

 










Sommario :    VFR   VFR Marginale   IFR   IFR Intensivo   IFR Molto Intensivo
Visibilità : 
Base nubi : 
>= 8 km
>= 3000ft
5 / 8 km
1000 / 3000 ft
1500m / 5 km
500 / 1000 ft
800 / 1500m
200 / 500 ft
< 800m
< 200 ft
Simboli :   Temporali  Nebbia  Neve Forte  Precipitazioni Forti  Vento > 20 kt
SIGMETs :   Varie  Temporali  Ghiacco  Turbolenza  Onda orograficha  Ceneri Vulcaniche







- Altitudine del aeroporto : 295 ft
- Codice IATA : ORN


DAOO - Es senia - Oran

ULTIMO METAR :
  • 220130Z 06005KT 9999 FEW026 20/18 Q1015

METARs OBSOLETI :
  • 220100Z 04004KT CAVOK 20/18 Q1015
  • 220030Z 04003KT 9999 SCT026 21/18 Q1015
  • 220000Z 05003KT 9999 SCT026 21/18 Q1015
  • 212330Z 01010KT 9999 FEW026 21/18 Q1015
  • 212300Z 01010KT 9999 SCT026 21/18 Q1015

TAF TAF DAOO
Valido dal 22 a 00 ore il 23 a 00 ore UTC


212300Z 2200/2224 01010KT 9999 SCT026
BECMG 2201/2203 VRB02KT 8000 SCT023 BKN030
TEMPO 2203/2208 3000 BR SCT010
PROB40
TEMPO 2205/2207 1500 BR BKN010
BECMG 2209/2212 02012KT 9999 FEW030
Nessun NOTAM noto per questo aeroporto.



MetMap, La meteo Aeronautica in un colpo d'occhio ! - Copyright ORBIFLY Dicembre 2007 - Disclaimer

ORBIFLY MET'MAP TEAM :

Programmazione e sviluppo : Alexandra Zaïnal
Concezione e sviluppo : Baudouin d'Aumeries
Co-Programmazione e sviluppo : Marc-Olivier Méhu
Supporto tecnico e logistico : Manuel Goepfert
Aiuto per la traduzione : Arnaldo La Scala

Contatto : metmap@orbifly.com




FONTI E CREDITI :

   NOAA